Atotonilco el Bajo, Mexico

9:32 AM CST on December 05, 2016 (GMT -0600)
Campo Sustrato | | Change Station

Elev 5059 ft 20.24 °N, 103.43 °W | Updated 0 second ago

Mostly Cloudy
Mostly Cloudy
60.1 °F
Feels Like 60.1 °F
N
2.0
Wind Variable Wind from SSW
Gusts 5.0 mph

Today
High -- | Low -- °F
--% Chance of Precip.
Yesterday
High -- | Low -- °F
Precip. -- in
Pressure 29.86 in
Visibility 8.0 miles
Clouds Scattered Clouds 8000 ft
Mostly Cloudy 30000 ft
Dew Point 45 °F
Humidity 58%
Rainfall 0.00 in
Snow Depth Not available.
7:16 AM 6:14 PM
Waxing Crescent, 32% visible
METAR MMGL 051454Z 00000KT 8SM SCT080 BKN300 12/08 A3011 RMK SLP109 52014 910 8/038
Pressure 29.86 in
Visibility 8.0 miles
Clouds Scattered Clouds 8000 ft
Mostly Cloudy 30000 ft
Dew Point 45 °F
Humidity 58%
Rainfall 0.00 in
Snow Depth Not available.
7:16 AM 6:14 PM
Waxing Crescent, 32% visible
METAR MMGL 051454Z 00000KT 8SM SCT080 BKN300 12/08 A3011 RMK SLP109 52014 910 8/038

10-Day Weather Forecast

No radar image for this location.
×

Almanac

Astronomy

Dec. 05, 2016 Rise Set
Actual Time
Civil Twilight
Nautical Twilight
Astronomical Twilight
Moon
Length of Visible Light
Length of Day
Tomorrow will be .
, % of the Moon is Illuminated

Today's Extremes

Country Highs Country Lows

Community

WunderPhotos

Upload Photos

1,955,790 photos uploaded!

WunderBlog® & News

Nearby

Air Quality

  Air Quality AQ Index Pollutant
Not available.

Snow Depth

Station Depth Elevation

Earthquake Activity

City Distance Mag. Time & Date
Minimum magnitude displayed is 2.5.

Coastal Water Temperatures

Place Temperature

Stations

Nearby Weather Stations

Station Location Temp. Windchill Dew Point Humidity Wind Precip. Elev Updated Type